sensor_id;sensor_type;location;lat;lon;timestamp;P1;durP1;ratioP1;P2;durP2;ratioP2
5171;SDS011;2605;49.770;9.868;2023-12-22T00:01:25;3.87;;;1.47;;
5171;SDS011;2605;49.770;9.868;2023-12-22T00:03:51;4.40;;;1.53;;
5171;SDS011;2605;49.770;9.868;2023-12-22T00:06:17;8.23;;;1.57;;
5171;SDS011;2605;49.770;9.868;2023-12-22T00:08:42;2.60;;;2.10;;
5171;SDS011;2605;49.770;9.868;2023-12-22T00:11:08;11.23;;;1.50;;
5171;SDS011;2605;49.770;9.868;2023-12-22T00:13:33;4.30;;;2.23;;
5171;SDS011;2605;49.770;9.868;2023-12-22T00:15:59;1.77;;;1.60;;
5171;SDS011;2605;49.770;9.868;2023-12-22T00:18:25;10.50;;;1.73;;
5171;SDS011;2605;49.770;9.868;2023-12-22T00:20:51;4.20;;;2.07;;
5171;SDS011;2605;49.770;9.868;2023-12-22T00:23:17;7.03;;;2.00;;
5171;SDS011;2605;49.770;9.868;2023-12-22T00:25:42;3.67;;;1.00;;
5171;SDS011;2605;49.770;9.868;2023-12-22T00:28:08;5.83;;;2.80;;
5171;SDS011;2605;49.770;9.868;2023-12-22T00:30:33;5.50;;;1.97;;
5171;SDS011;2605;49.770;9.868;2023-12-22T00:32:59;2.97;;;1.77;;
5171;SDS011;2605;49.770;9.868;2023-12-22T00:35:24;2.90;;;1.07;;
5171;SDS011;2605;49.770;9.868;2023-12-22T00:37:50;5.23;;;1.77;;
5171;SDS011;2605;49.770;9.868;2023-12-22T00:40:15;1.43;;;1.33;;
5171;SDS011;2605;49.770;9.868;2023-12-22T00:42:41;2.87;;;0.97;;
5171;SDS011;2605;49.770;9.868;2023-12-22T00:45:06;1.83;;;1.10;;
5171;SDS011;2605;49.770;9.868;2023-12-22T00:47:32;1.57;;;1.47;;
5171;SDS011;2605;49.770;9.868;2023-12-22T00:50:00;1.67;;;1.00;;
5171;SDS011;2605;49.770;9.868;2023-12-22T00:52:26;3.73;;;1.20;;
5171;SDS011;2605;49.770;9.868;2023-12-22T00:54:52;4.87;;;2.20;;
5171;SDS011;2605;49.770;9.868;2023-12-22T00:57:17;5.53;;;1.10;;
5171;SDS011;2605;49.770;9.868;2023-12-22T00:59:43;1.10;;;1.00;;
5171;SDS011;2605;49.770;9.868;2023-12-22T01:02:12;2.67;;;1.30;;
5171;SDS011;2605;49.770;9.868;2023-12-22T01:04:41;1.63;;;0.90;;
5171;SDS011;2605;49.770;9.868;2023-12-22T01:07:07;2.83;;;1.63;;
5171;SDS011;2605;49.770;9.868;2023-12-22T01:09:33;4.70;;;1.20;;
5171;SDS011;2605;49.770;9.868;2023-12-22T01:11:59;2.60;;;1.50;;
5171;SDS011;2605;49.770;9.868;2023-12-22T01:14:27;5.43;;;1.20;;
5171;SDS011;2605;49.770;9.868;2023-12-22T01:16:53;5.43;;;1.10;;
5171;SDS011;2605;49.770;9.868;2023-12-22T01:19:18;0.80;;;0.70;;
5171;SDS011;2605;49.770;9.868;2023-12-22T01:21:44;1.53;;;1.43;;
5171;SDS011;2605;49.770;9.868;2023-12-22T01:24:09;3.23;;;1.30;;
5171;SDS011;2605;49.770;9.868;2023-12-22T01:26:35;8.73;;;1.90;;
5171;SDS011;2605;49.770;9.868;2023-12-22T01:29:03;1.60;;;1.00;;
5171;SDS011;2605;49.770;9.868;2023-12-22T01:31:29;1.40;;;0.80;;
5171;SDS011;2605;49.770;9.868;2023-12-22T01:33:55;6.07;;;1.23;;
5171;SDS011;2605;49.770;9.868;2023-12-22T01:36:20;0.70;;;0.70;;
5171;SDS011;2605;49.770;9.868;2023-12-22T01:38:46;3.13;;;1.20;;
5171;SDS011;2605;49.770;9.868;2023-12-22T01:41:11;14.30;;;1.47;;
5171;SDS011;2605;49.770;9.868;2023-12-22T01:43:37;2.83;;;1.20;;
5171;SDS011;2605;49.770;9.868;2023-12-22T01:46:02;2.40;;;1.40;;
5171;SDS011;2605;49.770;9.868;2023-12-22T01:48:28;3.90;;;1.10;;
5171;SDS011;2605;49.770;9.868;2023-12-22T01:50:55;2.63;;;0.87;;
5171;SDS011;2605;49.770;9.868;2023-12-22T01:53:21;1.03;;;0.93;;
5171;SDS011;2605;49.770;9.868;2023-12-22T01:55:49;3.37;;;0.90;;
5171;SDS011;2605;49.770;9.868;2023-12-22T01:58:17;3.60;;;1.07;;
5171;SDS011;2605;49.770;9.868;2023-12-22T02:00:43;3.43;;;0.77;;
5171;SDS011;2605;49.770;9.868;2023-12-22T02:03:09;4.87;;;1.40;;
5171;SDS011;2605;49.770;9.868;2023-12-22T02:05:35;1.57;;;1.00;;
5171;SDS011;2605;49.770;9.868;2023-12-22T02:08:00;4.30;;;1.17;;
5171;SDS011;2605;49.770;9.868;2023-12-22T02:10:26;1.43;;;1.00;;
5171;SDS011;2605;49.770;9.868;2023-12-22T02:12:51;0.90;;;0.70;;
5171;SDS011;2605;49.770;9.868;2023-12-22T02:15:17;2.63;;;1.27;;
5171;SDS011;2605;49.770;9.868;2023-12-22T02:17:52;5.17;;;1.17;;
5171;SDS011;2605;49.770;9.868;2023-12-22T02:20:26;1.53;;;1.00;;
5171;SDS011;2605;49.770;9.868;2023-12-22T02:22:52;2.17;;;0.60;;
5171;SDS011;2605;49.770;9.868;2023-12-22T02:25:18;1.73;;;0.80;;
5171;SDS011;2605;49.770;9.868;2023-12-22T02:27:53;1.30;;;0.90;;
5171;SDS011;2605;49.770;9.868;2023-12-22T02:30:25;0.60;;;0.60;;
5171;SDS011;2605;49.770;9.868;2023-12-22T02:32:57;3.70;;;0.90;;
5171;SDS011;2605;49.770;9.868;2023-12-22T02:35:25;1.23;;;0.90;;
5171;SDS011;2605;49.770;9.868;2023-12-22T02:37:53;0.70;;;0.60;;
5171;SDS011;2605;49.770;9.868;2023-12-22T02:40:22;0.80;;;0.60;;
5171;SDS011;2605;49.770;9.868;2023-12-22T02:42:48;0.57;;;0.53;;
5171;SDS011;2605;49.770;9.868;2023-12-22T02:45:15;0.90;;;0.70;;
5171;SDS011;2605;49.770;9.868;2023-12-22T02:47:42;0.70;;;0.70;;
5171;SDS011;2605;49.770;9.868;2023-12-22T02:50:08;3.57;;;0.70;;
5171;SDS011;2605;49.770;9.868;2023-12-22T02:52:34;1.90;;;0.67;;
5171;SDS011;2605;49.770;9.868;2023-12-22T02:55:00;0.60;;;0.60;;
5171;SDS011;2605;49.770;9.868;2023-12-22T02:57:26;1.10;;;0.60;;
5171;SDS011;2605;49.770;9.868;2023-12-22T02:59:52;0.83;;;0.60;;
5171;SDS011;2605;49.770;9.868;2023-12-22T03:02:17;0.60;;;0.60;;
5171;SDS011;2605;49.770;9.868;2023-12-22T03:04:43;4.83;;;0.90;;
5171;SDS011;2605;49.770;9.868;2023-12-22T03:07:08;0.83;;;0.80;;
5171;SDS011;2605;49.770;9.868;2023-12-22T03:09:34;0.60;;;0.60;;
5171;SDS011;2605;49.770;9.868;2023-12-22T03:12:00;2.30;;;0.93;;
5171;SDS011;2605;49.770;9.868;2023-12-22T03:14:31;0.80;;;0.60;;
5171;SDS011;2605;49.770;9.868;2023-12-22T03:17:03;0.90;;;0.77;;
5171;SDS011;2605;49.770;9.868;2023-12-22T03:19:30;0.87;;;0.60;;
5171;SDS011;2605;49.770;9.868;2023-12-22T03:21:56;3.13;;;1.13;;
5171;SDS011;2605;49.770;9.868;2023-12-22T03:24:25;0.80;;;0.80;;
5171;SDS011;2605;49.770;9.868;2023-12-22T03:26:51;1.73;;;0.73;;
5171;SDS011;2605;49.770;9.868;2023-12-22T03:29:17;2.40;;;1.00;;
5171;SDS011;2605;49.770;9.868;2023-12-22T03:31:43;12.80;;;1.07;;
5171;SDS011;2605;49.770;9.868;2023-12-22T03:34:10;0.60;;;0.60;;
5171;SDS011;2605;49.770;9.868;2023-12-22T03:36:35;1.17;;;0.90;;
5171;SDS011;2605;49.770;9.868;2023-12-22T03:39:01;16.93;;;2.30;;
5171;SDS011;2605;49.770;9.868;2023-12-22T03:41:27;4.93;;;0.90;;
5171;SDS011;2605;49.770;9.868;2023-12-22T03:43:54;1.27;;;0.60;;
5171;SDS011;2605;49.770;9.868;2023-12-22T03:46:23;4.40;;;1.10;;
5171;SDS011;2605;49.770;9.868;2023-12-22T03:48:50;3.17;;;0.80;;
5171;SDS011;2605;49.770;9.868;2023-12-22T03:51:15;2.40;;;1.27;;
5171;SDS011;2605;49.770;9.868;2023-12-22T03:53:41;1.37;;;0.90;;
5171;SDS011;2605;49.770;9.868;2023-12-22T03:56:07;1.43;;;0.80;;
5171;SDS011;2605;49.770;9.868;2023-12-22T03:58:33;4.20;;;1.00;;
5171;SDS011;2605;49.770;9.868;2023-12-22T04:01:02;0.80;;;0.80;;
5171;SDS011;2605;49.770;9.868;2023-12-22T04:03:28;3.90;;;0.93;;
5171;SDS011;2605;49.770;9.868;2023-12-22T04:05:54;2.03;;;0.87;;
5171;SDS011;2605;49.770;9.868;2023-12-22T04:08:19;0.73;;;0.73;;
5171;SDS011;2605;49.770;9.868;2023-12-22T04:10:45;2.10;;;0.60;;
5171;SDS011;2605;49.770;9.868;2023-12-22T04:13:11;0.57;;;0.57;;
5171;SDS011;2605;49.770;9.868;2023-12-22T04:15:36;0.70;;;0.70;;
5171;SDS011;2605;49.770;9.868;2023-12-22T04:18:02;0.70;;;0.57;;
5171;SDS011;2605;49.770;9.868;2023-12-22T04:20:28;0.93;;;0.60;;
5171;SDS011;2605;49.770;9.868;2023-12-22T04:22:53;0.50;;;0.50;;
5171;SDS011;2605;49.770;9.868;2023-12-22T04:25:19;1.13;;;0.70;;
5171;SDS011;2605;49.770;9.868;2023-12-22T04:27:44;1.10;;;0.93;;
5171;SDS011;2605;49.770;9.868;2023-12-22T04:30:10;0.80;;;0.60;;
5171;SDS011;2605;49.770;9.868;2023-12-22T04:32:36;0.67;;;0.67;;
5171;SDS011;2605;49.770;9.868;2023-12-22T04:35:01;0.83;;;0.83;;
5171;SDS011;2605;49.770;9.868;2023-12-22T04:37:27;1.00;;;0.80;;
5171;SDS011;2605;49.770;9.868;2023-12-22T04:39:53;1.20;;;0.90;;
5171;SDS011;2605;49.770;9.868;2023-12-22T04:42:18;1.13;;;1.03;;
5171;SDS011;2605;49.770;9.868;2023-12-22T04:44:44;2.50;;;0.83;;
5171;SDS011;2605;49.770;9.868;2023-12-22T04:47:10;0.93;;;0.93;;
5171;SDS011;2605;49.770;9.868;2023-12-22T04:49:37;1.00;;;0.70;;
5171;SDS011;2605;49.770;9.868;2023-12-22T04:52:03;1.17;;;0.90;;
5171;SDS011;2605;49.770;9.868;2023-12-22T04:54:28;2.40;;;0.73;;
5171;SDS011;2605;49.770;9.868;2023-12-22T04:56:54;1.00;;;0.90;;
5171;SDS011;2605;49.770;9.868;2023-12-22T04:59:19;1.10;;;1.00;;
5171;SDS011;2605;49.770;9.868;2023-12-22T05:01:45;2.03;;;1.17;;
5171;SDS011;2605;49.770;9.868;2023-12-22T05:04:10;6.77;;;1.70;;
5171;SDS011;2605;49.770;9.868;2023-12-22T05:06:36;0.70;;;0.70;;
5171;SDS011;2605;49.770;9.868;2023-12-22T05:09:02;1.50;;;0.90;;
5171;SDS011;2605;49.770;9.868;2023-12-22T05:11:28;1.43;;;0.80;;
5171;SDS011;2605;49.770;9.868;2023-12-22T05:13:54;1.07;;;0.90;;
5171;SDS011;2605;49.770;9.868;2023-12-22T05:16:19;1.43;;;0.60;;
5171;SDS011;2605;49.770;9.868;2023-12-22T05:18:45;2.10;;;1.50;;
5171;SDS011;2605;49.770;9.868;2023-12-22T05:21:12;1.60;;;1.00;;
5171;SDS011;2605;49.770;9.868;2023-12-22T05:23:39;0.70;;;0.70;;
5171;SDS011;2605;49.770;9.868;2023-12-22T05:26:04;1.80;;;1.40;;
5171;SDS011;2605;49.770;9.868;2023-12-22T05:28:30;2.30;;;1.10;;
5171;SDS011;2605;49.770;9.868;2023-12-22T05:30:55;1.70;;;1.47;;
5171;SDS011;2605;49.770;9.868;2023-12-22T05:33:21;2.20;;;1.43;;
5171;SDS011;2605;49.770;9.868;2023-12-22T05:35:46;16.10;;;1.80;;
5171;SDS011;2605;49.770;9.868;2023-12-22T05:38:12;1.40;;;1.00;;
5171;SDS011;2605;49.770;9.868;2023-12-22T05:40:37;8.63;;;1.73;;
5171;SDS011;2605;49.770;9.868;2023-12-22T05:43:03;1.40;;;1.30;;
5171;SDS011;2605;49.770;9.868;2023-12-22T05:45:28;2.43;;;1.13;;
5171;SDS011;2605;49.770;9.868;2023-12-22T05:47:54;3.00;;;1.70;;
5171;SDS011;2605;49.770;9.868;2023-12-22T05:50:19;4.10;;;1.40;;
5171;SDS011;2605;49.770;9.868;2023-12-22T05:52:45;3.23;;;1.30;;
5171;SDS011;2605;49.770;9.868;2023-12-22T05:55:10;7.47;;;1.73;;
5171;SDS011;2605;49.770;9.868;2023-12-22T05:57:36;3.63;;;0.97;;
5171;SDS011;2605;49.770;9.868;2023-12-22T06:00:02;1.87;;;1.40;;
5171;SDS011;2605;49.770;9.868;2023-12-22T06:02:32;5.53;;;1.80;;
5171;SDS011;2605;49.770;9.868;2023-12-22T06:04:58;2.03;;;1.40;;
5171;SDS011;2605;49.770;9.868;2023-12-22T06:07:23;3.77;;;2.20;;
5171;SDS011;2605;49.770;9.868;2023-12-22T06:09:49;9.97;;;2.00;;
5171;SDS011;2605;49.770;9.868;2023-12-22T06:12:14;2.27;;;1.67;;
5171;SDS011;2605;49.770;9.868;2023-12-22T06:14:40;10.07;;;1.90;;
5171;SDS011;2605;49.770;9.868;2023-12-22T06:17:06;4.87;;;1.60;;
5171;SDS011;2605;49.770;9.868;2023-12-22T06:19:31;5.77;;;2.77;;
5171;SDS011;2605;49.770;9.868;2023-12-22T06:21:57;6.60;;;1.50;;
5171;SDS011;2605;49.770;9.868;2023-12-22T06:24:23;1.63;;;1.53;;
5171;SDS011;2605;49.770;9.868;2023-12-22T06:26:48;2.50;;;1.30;;
5171;SDS011;2605;49.770;9.868;2023-12-22T06:29:15;4.87;;;1.47;;
5171;SDS011;2605;49.770;9.868;2023-12-22T06:31:40;5.40;;;2.33;;
5171;SDS011;2605;49.770;9.868;2023-12-22T06:34:06;11.33;;;1.57;;
5171;SDS011;2605;49.770;9.868;2023-12-22T06:36:33;6.80;;;1.83;;
5171;SDS011;2605;49.770;9.868;2023-12-22T06:38:59;8.03;;;1.90;;
5171;SDS011;2605;49.770;9.868;2023-12-22T06:41:25;4.67;;;1.73;;
5171;SDS011;2605;49.770;9.868;2023-12-22T06:43:51;4.50;;;1.40;;
5171;SDS011;2605;49.770;9.868;2023-12-22T06:46:20;3.23;;;1.67;;
5171;SDS011;2605;49.770;9.868;2023-12-22T06:48:51;1.60;;;1.00;;
5171;SDS011;2605;49.770;9.868;2023-12-22T06:51:20;1.60;;;1.07;;
5171;SDS011;2605;49.770;9.868;2023-12-22T06:53:47;1.33;;;0.90;;
5171;SDS011;2605;49.770;9.868;2023-12-22T06:56:17;1.83;;;1.17;;
5171;SDS011;2605;49.770;9.868;2023-12-22T06:58:43;2.40;;;1.63;;
5171;SDS011;2605;49.770;9.868;2023-12-22T07:01:11;3.90;;;1.60;;
5171;SDS011;2605;49.770;9.868;2023-12-22T07:03:37;2.97;;;1.33;;
5171;SDS011;2605;49.770;9.868;2023-12-22T07:06:03;2.83;;;1.63;;
5171;SDS011;2605;49.770;9.868;2023-12-22T07:08:29;2.90;;;1.80;;
5171;SDS011;2605;49.770;9.868;2023-12-22T07:10:54;14.33;;;1.50;;
5171;SDS011;2605;49.770;9.868;2023-12-22T07:13:20;2.90;;;1.27;;
5171;SDS011;2605;49.770;9.868;2023-12-22T07:15:45;6.03;;;2.47;;
5171;SDS011;2605;49.770;9.868;2023-12-22T07:18:11;7.43;;;2.50;;
5171;SDS011;2605;49.770;9.868;2023-12-22T07:20:36;1.80;;;1.63;;
5171;SDS011;2605;49.770;9.868;2023-12-22T07:23:01;7.73;;;2.70;;
5171;SDS011;2605;49.770;9.868;2023-12-22T07:25:27;4.00;;;2.03;;
5171;SDS011;2605;49.770;9.868;2023-12-22T07:27:52;3.63;;;1.60;;
5171;SDS011;2605;49.770;9.868;2023-12-22T07:30:18;7.80;;;3.00;;
5171;SDS011;2605;49.770;9.868;2023-12-22T07:32:44;12.77;;;2.83;;
5171;SDS011;2605;49.770;9.868;2023-12-22T07:35:12;4.17;;;2.13;;
5171;SDS011;2605;49.770;9.868;2023-12-22T07:37:37;6.87;;;2.43;;
5171;SDS011;2605;49.770;9.868;2023-12-22T07:40:03;1.67;;;1.33;;
5171;SDS011;2605;49.770;9.868;2023-12-22T07:42:29;2.80;;;2.20;;
5171;SDS011;2605;49.770;9.868;2023-12-22T07:44:55;4.20;;;2.37;;
5171;SDS011;2605;49.770;9.868;2023-12-22T07:47:20;9.93;;;2.43;;
5171;SDS011;2605;49.770;9.868;2023-12-22T07:49:46;4.87;;;1.97;;
5171;SDS011;2605;49.770;9.868;2023-12-22T07:52:14;4.93;;;1.70;;
5171;SDS011;2605;49.770;9.868;2023-12-22T07:54:40;4.90;;;3.03;;
5171;SDS011;2605;49.770;9.868;2023-12-22T07:57:05;4.00;;;2.17;;
5171;SDS011;2605;49.770;9.868;2023-12-22T07:59:31;4.50;;;2.13;;
5171;SDS011;2605;49.770;9.868;2023-12-22T08:01:56;10.63;;;2.60;;
5171;SDS011;2605;49.770;9.868;2023-12-22T08:04:22;3.33;;;1.80;;
5171;SDS011;2605;49.770;9.868;2023-12-22T08:06:47;6.33;;;2.57;;
5171;SDS011;2605;49.770;9.868;2023-12-22T08:09:13;10.50;;;1.83;;
5171;SDS011;2605;49.770;9.868;2023-12-22T08:11:38;11.10;;;2.60;;
5171;SDS011;2605;49.770;9.868;2023-12-22T08:14:04;5.33;;;2.03;;
5171;SDS011;2605;49.770;9.868;2023-12-22T08:16:29;8.37;;;2.73;;
5171;SDS011;2605;49.770;9.868;2023-12-22T08:18:55;1.90;;;1.20;;
5171;SDS011;2605;49.770;9.868;2023-12-22T08:21:20;10.20;;;2.37;;
5171;SDS011;2605;49.770;9.868;2023-12-22T08:23:46;5.27;;;2.23;;
5171;SDS011;2605;49.770;9.868;2023-12-22T08:26:11;9.23;;;2.23;;
5171;SDS011;2605;49.770;9.868;2023-12-22T08:28:39;7.03;;;2.83;;
5171;SDS011;2605;49.770;9.868;2023-12-22T08:31:04;12.23;;;2.83;;
5171;SDS011;2605;49.770;9.868;2023-12-22T08:33:30;6.23;;;2.87;;
5171;SDS011;2605;49.770;9.868;2023-12-22T08:35:59;7.13;;;2.30;;
5171;SDS011;2605;49.770;9.868;2023-12-22T08:38:24;5.53;;;2.47;;
5171;SDS011;2605;49.770;9.868;2023-12-22T08:40:51;5.87;;;2.30;;
5171;SDS011;2605;49.770;9.868;2023-12-22T08:43:17;11.90;;;2.90;;
5171;SDS011;2605;49.770;9.868;2023-12-22T08:45:42;4.13;;;1.97;;
5171;SDS011;2605;49.770;9.868;2023-12-22T08:48:08;5.23;;;2.43;;
5171;SDS011;2605;49.770;9.868;2023-12-22T08:50:34;13.30;;;3.00;;
5171;SDS011;2605;49.770;9.868;2023-12-22T08:52:59;5.67;;;1.70;;
5171;SDS011;2605;49.770;9.868;2023-12-22T08:55:25;13.33;;;3.90;;
5171;SDS011;2605;49.770;9.868;2023-12-22T08:57:50;6.20;;;1.50;;
5171;SDS011;2605;49.770;9.868;2023-12-22T09:00:16;16.70;;;2.80;;
5171;SDS011;2605;49.770;9.868;2023-12-22T09:02:42;7.53;;;2.80;;
5171;SDS011;2605;49.770;9.868;2023-12-22T09:05:07;5.93;;;1.90;;
5171;SDS011;2605;49.770;9.868;2023-12-22T09:07:33;10.33;;;3.10;;
5171;SDS011;2605;49.770;9.868;2023-12-22T09:09:58;9.00;;;3.33;;
5171;SDS011;2605;49.770;9.868;2023-12-22T09:12:24;3.77;;;1.53;;
5171;SDS011;2605;49.770;9.868;2023-12-22T09:14:49;2.90;;;2.60;;
5171;SDS011;2605;49.770;9.868;2023-12-22T09:17:15;8.20;;;3.27;;
5171;SDS011;2605;49.770;9.868;2023-12-22T09:19:41;5.27;;;2.00;;
5171;SDS011;2605;49.770;9.868;2023-12-22T09:22:07;7.10;;;2.17;;
5171;SDS011;2605;49.770;9.868;2023-12-22T09:24:33;9.20;;;2.47;;
5171;SDS011;2605;49.770;9.868;2023-12-22T09:26:59;8.23;;;2.33;;
5171;SDS011;2605;49.770;9.868;2023-12-22T09:29:27;5.60;;;2.17;;
5171;SDS011;2605;49.770;9.868;2023-12-22T09:31:54;6.57;;;2.33;;
5171;SDS011;2605;49.770;9.868;2023-12-22T09:34:20;3.53;;;2.13;;
5171;SDS011;2605;49.770;9.868;2023-12-22T09:36:46;1.83;;;1.50;;
5171;SDS011;2605;49.770;9.868;2023-12-22T09:39:11;4.80;;;2.23;;
5171;SDS011;2605;49.770;9.868;2023-12-22T09:41:45;3.37;;;1.43;;
5171;SDS011;2605;49.770;9.868;2023-12-22T09:44:14;5.03;;;2.60;;
5171;SDS011;2605;49.770;9.868;2023-12-22T09:46:43;5.20;;;2.30;;
5171;SDS011;2605;49.770;9.868;2023-12-22T09:49:10;6.20;;;2.33;;
5171;SDS011;2605;49.770;9.868;2023-12-22T09:51:36;2.50;;;2.10;;
5171;SDS011;2605;49.770;9.868;2023-12-22T09:54:02;3.23;;;1.73;;
5171;SDS011;2605;49.770;9.868;2023-12-22T09:56:29;5.47;;;2.20;;
5171;SDS011;2605;49.770;9.868;2023-12-22T09:58:54;5.10;;;1.67;;
5171;SDS011;2605;49.770;9.868;2023-12-22T10:01:21;3.83;;;1.60;;
5171;SDS011;2605;49.770;9.868;2023-12-22T10:03:47;4.30;;;1.00;;
5171;SDS011;2605;49.770;9.868;2023-12-22T10:06:13;2.33;;;1.50;;
5171;SDS011;2605;49.770;9.868;2023-12-22T10:08:41;5.73;;;1.47;;
5171;SDS011;2605;49.770;9.868;2023-12-22T10:11:08;4.70;;;1.60;;
5171;SDS011;2605;49.770;9.868;2023-12-22T10:13:35;2.00;;;1.17;;
5171;SDS011;2605;49.770;9.868;2023-12-22T10:16:02;3.93;;;1.53;;
5171;SDS011;2605;49.770;9.868;2023-12-22T10:18:30;2.27;;;1.30;;
5171;SDS011;2605;49.770;9.868;2023-12-22T10:20:57;1.10;;;1.00;;
5171;SDS011;2605;49.770;9.868;2023-12-22T10:23:22;1.97;;;1.40;;
5171;SDS011;2605;49.770;9.868;2023-12-22T10:25:49;4.43;;;1.03;;
5171;SDS011;2605;49.770;9.868;2023-12-22T10:28:16;1.27;;;1.17;;
5171;SDS011;2605;49.770;9.868;2023-12-22T10:30:42;2.00;;;1.27;;
5171;SDS011;2605;49.770;9.868;2023-12-22T10:33:09;2.33;;;1.40;;
5171;SDS011;2605;49.770;9.868;2023-12-22T10:35:36;8.23;;;1.37;;
5171;SDS011;2605;49.770;9.868;2023-12-22T10:38:03;1.97;;;1.07;;
5171;SDS011;2605;49.770;9.868;2023-12-22T10:40:29;2.30;;;1.27;;
5171;SDS011;2605;49.770;9.868;2023-12-22T10:42:55;4.30;;;1.10;;
5171;SDS011;2605;49.770;9.868;2023-12-22T10:45:20;2.00;;;0.77;;
5171;SDS011;2605;49.770;9.868;2023-12-22T10:47:48;0.70;;;0.57;;
5171;SDS011;2605;49.770;9.868;2023-12-22T10:50:15;4.83;;;1.20;;
5171;SDS011;2605;49.770;9.868;2023-12-22T10:52:48;4.50;;;1.23;;
5171;SDS011;2605;49.770;9.868;2023-12-22T10:55:15;3.43;;;1.20;;
5171;SDS011;2605;49.770;9.868;2023-12-22T10:57:41;1.80;;;1.13;;
5171;SDS011;2605;49.770;9.868;2023-12-22T11:00:08;4.20;;;1.60;;
5171;SDS011;2605;49.770;9.868;2023-12-22T11:02:35;2.30;;;1.00;;
5171;SDS011;2605;49.770;9.868;2023-12-22T11:05:04;3.03;;;1.50;;
5171;SDS011;2605;49.770;9.868;2023-12-22T11:07:30;3.17;;;1.27;;
5171;SDS011;2605;49.770;9.868;2023-12-22T11:10:02;3.63;;;1.33;;
5171;SDS011;2605;49.770;9.868;2023-12-22T11:12:32;2.60;;;1.43;;
5171;SDS011;2605;49.770;9.868;2023-12-22T11:15:00;6.93;;;2.70;;
5171;SDS011;2605;49.770;9.868;2023-12-22T11:17:28;5.23;;;1.83;;
5171;SDS011;2605;49.770;9.868;2023-12-22T11:19:54;9.90;;;2.27;;
5171;SDS011;2605;49.770;9.868;2023-12-22T11:22:21;8.07;;;2.97;;
5171;SDS011;2605;49.770;9.868;2023-12-22T11:24:47;7.37;;;2.73;;
5171;SDS011;2605;49.770;9.868;2023-12-22T11:27:16;13.33;;;2.30;;
5171;SDS011;2605;49.770;9.868;2023-12-22T11:29:44;13.90;;;3.70;;
5171;SDS011;2605;49.770;9.868;2023-12-22T11:32:18;3.30;;;1.80;;
5171;SDS011;2605;49.770;9.868;2023-12-22T11:34:44;5.00;;;2.10;;
5171;SDS011;2605;49.770;9.868;2023-12-22T11:37:11;11.10;;;2.43;;
5171;SDS011;2605;49.770;9.868;2023-12-22T11:39:41;9.27;;;2.80;;
5171;SDS011;2605;49.770;9.868;2023-12-22T11:42:08;14.17;;;3.20;;
5171;SDS011;2605;49.770;9.868;2023-12-22T11:44:41;11.60;;;3.27;;
5171;SDS011;2605;49.770;9.868;2023-12-22T11:47:09;8.17;;;2.60;;
5171;SDS011;2605;49.770;9.868;2023-12-22T11:49:36;10.73;;;3.03;;
5171;SDS011;2605;49.770;9.868;2023-12-22T11:52:15;13.73;;;3.20;;
5171;SDS011;2605;49.770;9.868;2023-12-22T11:54:45;9.57;;;3.57;;
5171;SDS011;2605;49.770;9.868;2023-12-22T11:59:54;4.20;;;1.80;;
5171;SDS011;2605;49.770;9.868;2023-12-22T12:02:20;5.80;;;2.40;;
5171;SDS011;2605;49.770;9.868;2023-12-22T12:04:52;11.10;;;3.23;;
5171;SDS011;2605;49.770;9.868;2023-12-22T12:10:13;14.77;;;4.00;;
5171;SDS011;2605;49.770;9.868;2023-12-22T12:13:07;7.43;;;2.33;;
5171;SDS011;2605;49.770;9.868;2023-12-22T12:15:34;21.60;;;3.90;;
5171;SDS011;2605;49.770;9.868;2023-12-22T12:18:01;11.03;;;3.23;;
5171;SDS011;2605;49.770;9.868;2023-12-22T12:20:27;9.17;;;2.87;;
5171;SDS011;2605;49.770;9.868;2023-12-22T12:22:53;5.43;;;2.50;;
5171;SDS011;2605;49.770;9.868;2023-12-22T12:25:21;6.73;;;2.30;;
5171;SDS011;2605;49.770;9.868;2023-12-22T12:27:50;7.90;;;2.70;;
5171;SDS011;2605;49.770;9.868;2023-12-22T12:30:25;10.13;;;3.00;;
5171;SDS011;2605;49.770;9.868;2023-12-22T12:32:51;3.03;;;1.57;;
5171;SDS011;2605;49.770;9.868;2023-12-22T12:35:18;6.30;;;2.50;;
5171;SDS011;2605;49.770;9.868;2023-12-22T12:37:44;6.10;;;2.83;;
5171;SDS011;2605;49.770;9.868;2023-12-22T12:40:13;7.80;;;3.10;;
5171;SDS011;2605;49.770;9.868;2023-12-22T12:42:45;4.50;;;1.90;;
5171;SDS011;2605;49.770;9.868;2023-12-22T12:45:10;5.40;;;1.87;;
5171;SDS011;2605;49.770;9.868;2023-12-22T12:47:36;6.23;;;1.70;;
5171;SDS011;2605;49.770;9.868;2023-12-22T12:50:02;7.30;;;2.77;;
5171;SDS011;2605;49.770;9.868;2023-12-22T12:52:28;4.93;;;2.50;;
5171;SDS011;2605;49.770;9.868;2023-12-22T12:54:54;15.33;;;2.10;;
5171;SDS011;2605;49.770;9.868;2023-12-22T12:57:20;10.47;;;4.40;;
5171;SDS011;2605;49.770;9.868;2023-12-22T12:59:47;12.70;;;2.83;;
5171;SDS011;2605;49.770;9.868;2023-12-22T13:02:14;4.23;;;2.23;;
5171;SDS011;2605;49.770;9.868;2023-12-22T13:04:43;8.13;;;2.73;;
5171;SDS011;2605;49.770;9.868;2023-12-22T13:07:09;4.50;;;1.50;;
5171;SDS011;2605;49.770;9.868;2023-12-22T13:09:35;5.60;;;1.50;;
5171;SDS011;2605;49.770;9.868;2023-12-22T13:12:01;6.13;;;2.73;;
5171;SDS011;2605;49.770;9.868;2023-12-22T13:14:28;7.70;;;1.83;;
5171;SDS011;2605;49.770;9.868;2023-12-22T13:16:54;8.10;;;2.70;;
5171;SDS011;2605;49.770;9.868;2023-12-22T13:19:24;3.37;;;1.90;;
5171;SDS011;2605;49.770;9.868;2023-12-22T13:21:51;8.13;;;1.50;;
5171;SDS011;2605;49.770;9.868;2023-12-22T13:24:20;9.70;;;2.60;;
5171;SDS011;2605;49.770;9.868;2023-12-22T13:26:46;3.07;;;1.30;;
5171;SDS011;2605;49.770;9.868;2023-12-22T13:29:12;3.03;;;1.13;;
5171;SDS011;2605;49.770;9.868;2023-12-22T13:31:39;4.40;;;1.47;;
5171;SDS011;2605;49.770;9.868;2023-12-22T13:34:10;5.47;;;2.73;;
5171;SDS011;2605;49.770;9.868;2023-12-22T13:36:36;4.70;;;1.53;;
5171;SDS011;2605;49.770;9.868;2023-12-22T13:39:02;3.80;;;1.33;;
5171;SDS011;2605;49.770;9.868;2023-12-22T13:41:32;11.63;;;2.17;;
5171;SDS011;2605;49.770;9.868;2023-12-22T13:44:10;3.23;;;1.67;;
5171;SDS011;2605;49.770;9.868;2023-12-22T13:46:39;4.30;;;2.10;;
5171;SDS011;2605;49.770;9.868;2023-12-22T13:49:07;14.73;;;2.20;;
5171;SDS011;2605;49.770;9.868;2023-12-22T13:51:38;3.93;;;1.63;;
5171;SDS011;2605;49.770;9.868;2023-12-22T13:54:07;2.50;;;1.30;;
5171;SDS011;2605;49.770;9.868;2023-12-22T13:56:36;2.20;;;2.00;;
5171;SDS011;2605;49.770;9.868;2023-12-22T13:59:05;3.20;;;1.73;;
5171;SDS011;2605;49.770;9.868;2023-12-22T14:01:31;5.60;;;2.10;;
5171;SDS011;2605;49.770;9.868;2023-12-22T14:03:56;1.33;;;1.00;;
5171;SDS011;2605;49.770;9.868;2023-12-22T14:06:27;1.30;;;1.20;;
5171;SDS011;2605;49.770;9.868;2023-12-22T14:08:54;4.07;;;1.30;;
5171;SDS011;2605;49.770;9.868;2023-12-22T14:11:20;3.10;;;1.40;;
5171;SDS011;2605;49.770;9.868;2023-12-22T14:13:45;2.40;;;1.47;;
5171;SDS011;2605;49.770;9.868;2023-12-22T14:16:11;2.57;;;1.17;;
5171;SDS011;2605;49.770;9.868;2023-12-22T14:18:37;1.50;;;1.03;;
5171;SDS011;2605;49.770;9.868;2023-12-22T14:21:02;2.83;;;1.30;;
5171;SDS011;2605;49.770;9.868;2023-12-22T14:23:30;0.80;;;0.70;;
5171;SDS011;2605;49.770;9.868;2023-12-22T14:25:56;1.17;;;0.80;;
5171;SDS011;2605;49.770;9.868;2023-12-22T14:28:24;2.20;;;1.20;;
5171;SDS011;2605;49.770;9.868;2023-12-22T14:30:50;7.43;;;1.17;;
5171;SDS011;2605;49.770;9.868;2023-12-22T14:33:16;1.77;;;1.53;;
5171;SDS011;2605;49.770;9.868;2023-12-22T14:35:41;1.40;;;1.30;;
5171;SDS011;2605;49.770;9.868;2023-12-22T14:38:06;1.00;;;0.90;;
5171;SDS011;2605;49.770;9.868;2023-12-22T14:40:32;3.17;;;1.40;;
5171;SDS011;2605;49.770;9.868;2023-12-22T14:42:58;2.30;;;1.00;;
5171;SDS011;2605;49.770;9.868;2023-12-22T14:45:24;1.33;;;1.10;;
5171;SDS011;2605;49.770;9.868;2023-12-22T14:47:50;1.50;;;1.10;;
5171;SDS011;2605;49.770;9.868;2023-12-22T14:50:16;2.60;;;1.30;;
5171;SDS011;2605;49.770;9.868;2023-12-22T14:52:42;2.23;;;1.30;;
5171;SDS011;2605;49.770;9.868;2023-12-22T14:55:08;2.20;;;1.10;;
5171;SDS011;2605;49.770;9.868;2023-12-22T14:57:33;3.03;;;1.63;;
5171;SDS011;2605;49.770;9.868;2023-12-22T14:59:59;1.20;;;1.00;;
5171;SDS011;2605;49.770;9.868;2023-12-22T15:02:24;1.17;;;1.00;;
5171;SDS011;2605;49.770;9.868;2023-12-22T15:04:50;1.23;;;0.83;;
5171;SDS011;2605;49.770;9.868;2023-12-22T15:07:16;3.20;;;1.20;;
5171;SDS011;2605;49.770;9.868;2023-12-22T15:09:42;0.70;;;0.70;;
5171;SDS011;2605;49.770;9.868;2023-12-22T15:12:08;0.80;;;0.80;;
5171;SDS011;2605;49.770;9.868;2023-12-22T15:14:33;0.87;;;0.83;;
5171;SDS011;2605;49.770;9.868;2023-12-22T15:16:59;1.17;;;1.00;;